KLDM/LDM METAR and TAF weather

Enter ICAO airport designator
Station Type Date Time Source
KLDM METAR 2020/07/10 17:55 UTC NOAA

KLDM 101755Z AUTO 36007G15KT 10SM BKN016 BKN024 BKN120 25/21 A2978 RMK AO2 60004 T02460205 10246 20210


Station Type Date Time Source
KLDM Decoded METAR 2020/07/10 17:55 UTC NOAA

Ludington, Mason County Airport, MI, United States (KLDM) 43-58N 86-24W
Jul 10, 2020 - 01:55 PM EDT / 2020.07.10 1755 UTC
Wind: from the N (360 degrees) at 8 MPH (7 KT) gusting to 17 MPH (15 KT):0
Visibility: 10 mile(s):0
Sky conditions: mostly cloudy
Temperature: 76.3 F (24.6 C)
Dew Point: 68.9 F (20.5 C)
Relative Humidity: 77%
Pressure (altimeter): 29.78 in. Hg (1008 hPa)
ob: KLDM 101755Z AUTO 36007G15KT 10SM BKN016 BKN024 BKN120 25/21 A2978 RMK AO2 60004 T02460205 10246 20210
cycle: 18

Station Type Date Time Source
KLDM TAF UTC NOAA

Error!

Example: see airport list